Time;durP1;ratioP1;P1;durP2;ratioP2;P2;SDS_P1;SDS_P2;PMS_P1;PMS_P2;Temp;Humidity;BMP_temperature;BMP_pressure;BME280_temperature;BME280_humidity;BME280_pressure;Samples;Min_cycle;Max_cycle;Signal;HPM_P1;HPM_P2
2021/12/06 00:01:19;;;;;;;8.70;7.00;;;;;;;2.69;100.00;152055.72;5072507;28;20420;-76
2021/12/06 00:03:59;;;;;;;8.03;6.50;;;;;;;2.72;100.00;152063.44;5060005;28;20539;-76
2021/12/06 00:06:37;;;;;;;7.37;6.57;;;;;;;2.70;100.00;152058.31;5052354;28;20425;-76
2021/12/06 00:09:16;;;;;;;8.00;6.70;;;;;;;2.69;100.00;152055.72;5051758;28;20441;-76
2021/12/06 00:11:57;;;;;;;7.43;6.33;;;;;;;2.67;100.00;152051.88;5075423;28;20480;-76
2021/12/06 00:14:35;;;;;;;7.90;6.13;;;;;;;2.67;100.00;152050.56;5051939;28;20461;-76
2021/12/06 00:17:14;;;;;;;7.03;6.20;;;;;;;2.66;100.00;152048.00;5051492;28;20809;-76
2021/12/06 00:19:50;;;;;;;6.53;5.87;;;;;;;2.65;100.00;152045.44;5051392;28;20433;-76
2021/12/06 00:22:26;;;;;;;7.00;6.40;;;;;;;2.65;100.00;152046.69;5038889;28;20462;-76
2021/12/06 00:25:01;;;;;;;8.53;6.37;;;;;;;2.65;100.00;152045.44;5087453;28;20450;-76
2021/12/06 00:27:39;;;;;;;7.77;6.57;;;;;;;2.65;100.00;152045.44;5066845;28;20547;-76
2021/12/06 00:30:16;;;;;;;6.53;5.87;;;;;;;2.64;100.00;152042.84;5091768;28;20853;-76
2021/12/06 00:32:52;;;;;;;9.33;6.40;;;;;;;2.65;100.00;152045.44;5070321;28;20476;-76
2021/12/06 00:35:29;;;;;;;6.90;5.93;;;;;;;2.64;100.00;152042.84;5064760;28;20463;-76
2021/12/06 00:38:04;;;;;;;7.60;5.53;;;;;;;2.63;100.00;152040.25;5051274;28;20445;-76
2021/12/06 00:40:42;;;;;;;8.47;6.67;;;;;;;2.62;100.00;152038.97;5052976;28;20457;-76
2021/12/06 00:43:19;;;;;;;7.10;5.70;;;;;;;2.61;100.00;152036.44;5053504;28;20450;-76
2021/12/06 00:45:55;;;;;;;6.33;5.67;;;;;;;2.60;100.00;152032.53;5102901;28;20937;-76
2021/12/06 00:48:30;;;;;;;6.17;5.13;;;;;;;2.61;100.00;152035.13;5089300;28;20445;-76
2021/12/06 00:51:06;;;;;;;7.60;6.30;;;;;;;2.59;100.00;152030.00;5070475;28;20432;-76
2021/12/06 00:53:42;;;;;;;7.77;6.07;;;;;;;2.59;100.00;152030.00;5092325;28;20495;-76
2021/12/06 00:56:18;;;;;;;7.23;6.53;;;;;;;2.60;100.00;152032.53;5065648;28;20496;-76
2021/12/06 00:58:55;;;;;;;7.83;6.40;;;;;;;2.59;100.00;152030.00;5049405;28;20470;-76
2021/12/06 01:01:32;;;;;;;8.27;6.90;;;;;;;2.60;100.00;152033.84;5050042;28;20443;-76
2021/12/06 01:04:09;;;;;;;9.37;6.90;;;;;;;2.59;100.00;152031.28;5066888;28;20539;-76
2021/12/06 01:06:44;;;;;;;7.90;7.10;;;;;;;2.59;100.00;152030.00;5071257;28;20914;-76
2021/12/06 01:09:20;;;;;;;8.40;6.60;;;;;;;2.61;100.00;152035.13;5055238;28;20776;-76
2021/12/06 01:11:56;;;;;;;8.83;6.80;;;;;;;2.63;100.00;152041.56;5051180;28;20480;-76
2021/12/06 01:14:33;;;;;;;9.17;6.67;;;;;;;2.64;100.00;152042.84;5050846;28;20441;-76
2021/12/06 01:17:09;;;;;;;7.03;6.33;;;;;;;2.63;100.00;152040.25;5054071;28;20445;-76
2021/12/06 01:19:46;;;;;;;8.40;6.23;;;;;;;2.59;100.00;152031.28;5068941;28;20462;-76
2021/12/06 01:22:27;;;;;;;7.40;6.17;;;;;;;2.58;100.00;152028.72;5050841;28;20445;-76
2021/12/06 01:25:14;;;;;;;7.97;6.60;;;;;;;2.57;100.00;152026.13;5070165;28;20476;-76
2021/12/06 01:28:16;;;;;;;9.23;6.87;;;;;;;2.57;100.00;152026.13;5049148;28;20564;-76
2021/12/06 01:30:58;;;;;;;8.73;6.67;;;;;;;2.55;100.00;152019.69;5053047;28;20544;-76
2021/12/06 01:33:52;;;;;;;7.57;6.77;;;;;;;2.56;100.00;152022.28;5065452;28;20457;-76
2021/12/06 01:39:25;;;;;;;8.50;7.37;;;;;;;2.56;100.00;152022.28;5084105;28;20437;-76
2021/12/06 01:42:05;;;;;;;8.90;7.00;;;;;;;2.57;100.00;152024.88;5045410;28;20442;-76
2021/12/06 01:44:42;;;;;;;8.10;7.30;;;;;;;2.57;100.00;152026.13;5080763;28;20872;-76
2021/12/06 01:47:31;;;;;;;7.40;6.20;;;;;;;2.57;100.00;152024.88;5071860;28;20466;-76
2021/12/06 01:50:11;;;;;;;7.17;6.47;;;;;;;2.55;100.00;152019.69;5061721;28;20461;-76
2021/12/06 01:52:52;;;;;;;9.03;6.57;;;;;;;2.60;100.00;152032.53;5039694;28;20963;-76
2021/12/06 01:55:37;;;;;;;9.27;8.23;;;;;;;2.65;100.00;152045.44;5051591;28;20517;-76
2021/12/06 01:58:13;;;;;;;10.10;7.80;;;;;;;2.64;100.00;152044.16;5086059;28;20441;-76
2021/12/06 02:00:51;;;;;;;11.50;8.33;;;;;;;2.66;100.00;152048.00;5047359;28;20449;-76
2021/12/06 02:03:35;;;;;;;11.97;9.07;;;;;;;2.70;100.00;152058.31;5068624;28;20891;-76
2021/12/06 02:06:10;;;;;;;8.87;7.90;;;;;;;2.62;100.00;152038.97;5090254;28;20536;-76
2021/12/06 02:08:46;;;;;;;10.00;8.47;;;;;;;2.61;100.00;152035.13;5085568;28;20528;-75
2021/12/06 02:11:24;;;;;;;10.37;9.20;;;;;;;2.59;100.00;152030.00;5047868;28;20441;-76
2021/12/06 02:14:06;;;;;;;9.90;8.47;;;;;;;2.63;100.00;152040.25;5052882;28;20440;-75
2021/12/06 02:16:58;;;;;;;10.03;8.00;;;;;;;2.54;100.00;152017.16;5038830;28;20465;-76
2021/12/06 02:19:40;;;;;;;11.70;7.43;;;;;;;2.47;100.00;152001.69;5069560;28;20464;-75
2021/12/06 02:22:20;;;;;;;8.87;7.30;;;;;;;2.38;100.00;151977.28;5054859;28;20418;-75
2021/12/06 02:24:57;;;;;;;10.20;8.27;;;;;;;2.33;100.00;151965.66;5078403;28;20448;-75
2021/12/06 02:27:33;;;;;;;10.40;7.77;;;;;;;2.35;100.00;151970.84;5047850;28;20866;-75
2021/12/06 02:30:12;;;;;;;9.07;8.17;;;;;;;2.36;100.00;151972.09;5046854;28;20516;-76
2021/12/06 02:32:49;;;;;;;10.77;8.83;;;;;;;2.40;100.00;151982.41;5103463;28;20526;-75
2021/12/06 02:35:25;;;;;;;9.60;8.60;;;;;;;2.38;100.00;151978.53;5058394;28;20549;-76
2021/12/06 02:38:08;;;;;;;11.23;8.97;;;;;;;2.41;100.00;151984.97;5071600;28;20535;-76
2021/12/06 02:40:44;;;;;;;13.50;9.97;;;;;;;2.40;100.00;151983.72;5075943;28;20448;-75
2021/12/06 02:43:20;;;;;;;12.07;10.77;;;;;;;2.40;100.00;151983.72;5062139;28;20798;-76
2021/12/06 02:45:57;;;;;;;14.20;11.60;;;;;;;2.43;100.00;151990.13;5073494;28;20444;-75
2021/12/06 02:48:33;;;;;;;13.80;11.30;;;;;;;2.40;100.00;151983.72;5057527;28;20442;-75
2021/12/06 02:51:09;;;;;;;14.27;11.63;;;;;;;2.46;100.00;151997.84;5070046;28;20879;-75
2021/12/06 02:53:46;;;;;;;14.10;10.53;;;;;;;2.46;100.00;151999.09;5087535;28;20451;-75
2021/12/06 02:56:32;;;;;;;12.13;9.97;;;;;;;2.45;100.00;151996.56;5101377;28;20468;-76
2021/12/06 02:59:11;;;;;;;13.00;9.27;;;;;;;2.45;100.00;151996.56;5054892;28;20442;-76
2021/12/06 03:01:48;;;;;;;11.70;10.40;;;;;;;2.47;100.00;152001.69;5057740;28;20444;-76
2021/12/06 03:04:24;;;;;;;11.60;10.50;;;;;;;2.44;100.00;151993.97;5052027;28;20464;-76
2021/12/06 03:07:00;;;;;;;15.93;11.23;;;;;;;2.42;100.00;151988.84;5056413;28;20522;-76
2021/12/06 03:09:40;;;;;;;11.77;10.30;;;;;;;2.38;100.00;151978.53;5091767;28;20806;-75
2021/12/06 03:12:21;;;;;;;11.93;10.53;;;;;;;2.38;100.00;151978.53;5085027;28;20956;-75
2021/12/06 03:15:00;;;;;;;11.70;10.37;;;;;;;2.40;100.00;151983.72;5038127;28;20483;-75
2021/12/06 03:17:36;;;;;;;12.33;9.87;;;;;;;2.43;100.00;151991.44;5038752;28;20442;-75
2021/12/06 03:20:14;;;;;;;12.80;9.83;;;;;;;2.21;100.00;151933.53;5037213;28;20460;-76
2021/12/06 03:22:50;;;;;;;11.43;10.30;;;;;;;2.03;100.00;151888.56;5049209;28;20450;-75
2021/12/06 03:25:27;;;;;;;11.80;9.23;;;;;;;2.08;100.00;151901.41;5047948;28;20747;-76
2021/12/06 03:28:04;;;;;;;10.33;9.23;;;;;;;2.12;100.00;151911.69;5038185;28;20453;-76
2021/12/06 03:30:41;;;;;;;11.93;9.30;;;;;;;2.12;100.00;151911.69;5052139;28;20469;-75
2021/12/06 03:33:17;;;;;;;12.10;10.53;;;;;;;2.20;100.00;151932.25;5051285;28;20448;-75
2021/12/06 03:35:53;;;;;;;12.97;11.60;;;;;;;2.20;100.00;151932.25;5097284;28;20570;-76
2021/12/06 03:38:29;;;;;;;17.90;12.90;;;;;;;2.22;100.00;151936.13;5074697;28;20426;-76
2021/12/06 03:41:08;;;;;;;16.00;13.47;;;;;;;2.21;100.00;151933.53;5056296;28;20848;-76
2021/12/06 03:43:43;;;;;;;13.57;11.80;;;;;;;2.23;100.00;151938.66;5046141;28;20949;-75
2021/12/06 03:46:21;;;;;;;18.13;12.97;;;;;;;2.21;100.00;151933.53;5045945;28;20437;-75
2021/12/06 03:48:57;;;;;;;16.33;14.57;;;;;;;2.22;100.00;151937.44;5050269;28;20451;-76
2021/12/06 03:51:33;;;;;;;19.50;15.10;;;;;;;2.24;100.00;151942.56;5042460;28;20855;-75
2021/12/06 03:54:09;;;;;;;15.40;13.77;;;;;;;2.24;100.00;151942.56;5089565;28;20491;-76
2021/12/06 03:56:48;;;;;;;22.40;15.73;;;;;;;2.27;100.00;151950.28;5072465;28;20953;-76
2021/12/06 03:59:24;;;;;;;19.30;14.70;;;;;;;2.29;100.00;151954.13;5051139;28;20462;-76
2021/12/06 04:02:01;;;;;;;18.20;15.00;;;;;;;2.31;100.00;151959.25;5037479;28;20451;-75
2021/12/06 04:04:37;;;;;;;18.37;15.57;;;;;;;2.32;100.00;151961.84;5040236;28;20455;-75
2021/12/06 04:07:15;;;;;;;22.10;16.03;;;;;;;2.29;100.00;151955.41;5056222;28;21021;-76
2021/12/06 04:09:52;;;;;;;20.47;16.33;;;;;;;2.30;100.00;151956.72;5063868;28;20439;-75
2021/12/06 04:12:29;;;;;;;24.07;19.33;;;;;;;2.39;100.00;151981.13;5102999;28;20826;-75
2021/12/06 04:15:07;;;;;;;19.80;16.10;;;;;;;2.38;100.00;151978.53;5071830;28;20485;-75
2021/12/06 04:17:42;;;;;;;19.63;17.50;;;;;;;2.35;100.00;151969.56;5055833;28;20490;-75
2021/12/06 04:20:18;;;;;;;21.50;17.83;;;;;;;2.29;100.00;151955.41;5063460;28;20458;-75
2021/12/06 04:22:55;;;;;;;20.97;17.77;;;;;;;2.29;100.00;151955.41;5045168;28;20821;-75
2021/12/06 04:25:32;;;;;;;20.93;17.20;;;;;;;2.25;100.00;151945.09;5055100;28;20460;-75
2021/12/06 04:28:14;;;;;;;24.10;18.17;;;;;;;2.25;100.00;151945.09;5041358;28;20549;-75
2021/12/06 04:30:51;;;;;;;24.10;18.90;;;;;;;2.24;100.00;151942.56;5071308;28;20475;-76
2021/12/06 04:33:27;;;;;;;21.67;18.10;;;;;;;2.24;100.00;151942.56;5043928;28;20446;-75
2021/12/06 04:36:05;;;;;;;22.67;18.50;;;;;;;2.24;100.00;151942.56;5084945;28;20476;-75
2021/12/06 04:38:41;;;;;;;23.33;17.60;;;;;;;2.28;100.00;151952.81;5051572;28;20455;-75
2021/12/06 04:41:16;;;;;;;26.33;19.17;;;;;;;2.24;100.00;151942.56;5091814;28;20451;-76
2021/12/06 04:43:54;;;;;;;24.73;19.40;;;;;;;2.27;100.00;151950.28;5044186;28;20456;-75
2021/12/06 04:46:29;;;;;;;23.23;19.23;;;;;;;2.26;100.00;151947.69;5055403;28;20467;-75
2021/12/06 04:49:05;;;;;;;26.17;19.73;;;;;;;2.25;100.00;151943.84;5089280;28;20454;-75
2021/12/06 04:51:43;;;;;;;25.30;18.60;;;;;;;2.32;100.00;151963.13;5044294;28;20805;-76
2021/12/06 04:54:22;;;;;;;30.33;20.80;;;;;;;2.39;100.00;151981.13;5040194;28;20451;-76
2021/12/06 04:57:01;;;;;;;25.60;19.40;;;;;;;2.32;100.00;151963.13;5044087;28;20804;-76
2021/12/06 04:59:40;;;;;;;26.73;19.80;;;;;;;2.31;100.00;151960.53;5040336;28;20468;-76
2021/12/06 05:02:20;;;;;;;28.80;20.33;;;;;;;2.31;100.00;151959.25;5040636;28;20445;-76
2021/12/06 05:04:58;;;;;;;25.83;19.43;;;;;;;2.29;100.00;151955.41;5051172;28;20539;-76
2021/12/06 05:07:39;;;;;;;34.20;21.20;;;;;;;2.32;100.00;151961.84;5068075;28;20448;-75
2021/12/06 05:10:16;;;;;;;27.57;20.50;;;;;;;2.29;100.00;151954.13;5087879;28;20465;-75
2021/12/06 05:12:52;;;;;;;22.57;17.90;;;;;;;2.20;100.00;151932.25;5054624;28;20443;-76
2021/12/06 05:15:29;;;;;;;21.60;18.20;;;;;;;2.22;100.00;151937.44;5044551;28;20447;-75
2021/12/06 05:18:05;;;;;;;22.13;17.23;;;;;;;2.22;100.00;151937.44;5068379;28;20421;-75
2021/12/06 05:20:41;;;;;;;21.90;18.67;;;;;;;2.23;100.00;151939.97;5034751;28;20524;-76
2021/12/06 05:23:16;;;;;;;26.17;19.70;;;;;;;2.25;100.00;151943.84;5034925;28;20440;-75
2021/12/06 05:25:52;;;;;;;25.40;19.00;;;;;;;2.24;100.00;151941.25;5066032;28;20927;-75
2021/12/06 05:28:32;;;;;;;29.23;20.50;;;;;;;2.23;100.00;151938.66;5058978;28;20440;-76
2021/12/06 05:31:14;;;;;;;26.20;18.53;;;;;;;2.22;100.00;151937.44;5039798;28;20574;-75
2021/12/06 05:33:54;;;;;;;24.60;17.17;;;;;;;2.23;100.00;151939.97;5034942;28;20431;-75
2021/12/06 05:36:29;;;;;;;25.33;19.27;;;;;;;2.26;100.00;151947.69;5050200;28;20457;-76
2021/12/06 05:39:06;;;;;;;26.77;19.77;;;;;;;2.23;100.00;151939.97;5084110;28;20467;-75
2021/12/06 05:41:42;;;;;;;27.17;19.40;;;;;;;2.33;100.00;151965.66;5095349;28;20445;-75
2021/12/06 05:44:17;;;;;;;30.80;21.40;;;;;;;2.31;100.00;151959.25;5049531;28;20452;-76
2021/12/06 05:46:55;;;;;;;28.23;19.47;;;;;;;2.30;100.00;151957.94;5093184;28;20437;-75
2021/12/06 05:49:31;;;;;;;33.43;20.83;;;;;;;2.33;100.00;151965.66;5074685;28;20445;-76
2021/12/06 05:52:06;;;;;;;29.13;19.97;;;;;;;2.34;100.00;151968.25;5075025;28;20455;-75
2021/12/06 05:54:42;;;;;;;24.93;18.70;;;;;;;2.35;100.00;151970.84;5071540;28;20452;-75
2021/12/06 05:57:18;;;;;;;26.70;19.37;;;;;;;2.34;100.00;151968.25;5091825;28;20468;-75
2021/12/06 05:59:54;;;;;;;27.93;19.20;;;;;;;2.37;100.00;151976.00;5058827;28;20477;-75
2021/12/06 06:02:32;;;;;;;25.03;19.40;;;;;;;2.38;100.00;151978.53;5057685;28;20436;-74
2021/12/06 06:05:12;;;;;;;25.60;19.40;;;;;;;2.41;100.00;151984.97;5067734;28;20976;-75
2021/12/06 06:07:51;;;;;;;29.33;18.30;;;;;;;2.40;100.00;151982.41;5066558;28;20448;-75
2021/12/06 06:10:31;;;;;;;26.53;18.63;;;;;;;2.40;100.00;151982.41;5054562;28;20444;-75
2021/12/06 06:13:09;;;;;;;29.70;19.30;;;;;;;2.40;100.00;151982.41;5055230;28;20442;-75
2021/12/06 06:15:46;;;;;;;29.07;17.93;;;;;;;2.40;100.00;151983.72;5038259;28;20454;-75
2021/12/06 06:18:23;;;;;;;25.50;17.73;;;;;;;2.38;100.00;151978.53;5094344;28;20427;-75
2021/12/06 06:20:59;;;;;;;20.70;16.10;;;;;;;2.35;100.00;151970.84;5066275;28;20513;-75
2021/12/06 06:23:36;;;;;;;21.17;15.83;;;;;;;2.33;100.00;151964.44;5047613;28;20532;-76
2021/12/06 06:26:12;;;;;;;22.13;15.13;;;;;;;2.36;100.00;151972.09;5042469;28;20428;-75
2021/12/06 06:28:48;;;;;;;28.27;15.90;;;;;;;2.34;100.00;151968.25;5073934;28;20817;-75
2021/12/06 06:31:24;;;;;;;23.00;15.67;;;;;;;2.38;100.00;151978.53;5073668;28;20459;-75
2021/12/06 06:34:01;;;;;;;24.03;16.43;;;;;;;2.41;100.00;151986.25;5063524;28;20469;-76
2021/12/06 06:36:37;;;;;;;19.97;14.97;;;;;;;2.41;100.00;151984.97;5065652;28;20870;-75
2021/12/06 06:39:12;;;;;;;22.37;15.00;;;;;;;2.40;100.00;151983.72;5041951;28;20791;-75
2021/12/06 06:41:49;;;;;;;21.43;15.83;;;;;;;2.40;100.00;151983.72;5053031;28;20444;-75
2021/12/06 06:44:25;;;;;;;19.70;14.50;;;;;;;2.35;100.00;151970.84;5044337;28;20449;-75
2021/12/06 06:47:01;;;;;;;21.57;15.67;;;;;;;2.34;100.00;151968.25;5053066;28;20519;-75
2021/12/06 06:49:38;;;;;;;18.77;13.90;;;;;;;2.34;100.00;151966.97;5037156;28;20444;-74
2021/12/06 06:52:13;;;;;;;19.30;15.70;;;;;;;2.31;100.00;151959.25;5080595;28;20961;-75
2021/12/06 06:54:49;;;;;;;21.83;15.97;;;;;;;2.34;100.00;151968.25;5060382;28;20476;-75
2021/12/06 06:57:25;;;;;;;23.47;16.17;;;;;;;2.33;100.00;151965.66;5053613;28;21055;-76
2021/12/06 07:00:00;;;;;;;22.70;15.30;;;;;;;2.36;100.00;151973.41;5089325;28;20482;-75
2021/12/06 07:02:36;;;;;;;21.20;14.67;;;;;;;2.35;100.00;151970.84;5037319;28;20447;-75
2021/12/06 07:05:13;;;;;;;24.27;16.37;;;;;;;2.32;100.00;151963.13;5037725;28;20483;-75
2021/12/06 07:07:49;;;;;;;22.10;15.20;;;;;;;2.35;100.00;151970.84;5059544;28;20429;-75
2021/12/06 07:10:25;;;;;;;20.80;15.30;;;;;;;2.35;100.00;151970.84;5086464;28;20542;-75
2021/12/06 07:13:04;;;;;;;21.37;14.07;;;;;;;2.38;100.00;151978.53;5086883;28;20526;-74
2021/12/06 07:15:40;;;;;;;22.10;15.57;;;;;;;2.40;100.00;151983.72;5056581;28;20445;-75
2021/12/06 07:18:16;;;;;;;24.60;16.03;;;;;;;2.40;100.00;151983.72;5098113;28;20462;-75
2021/12/06 07:20:53;;;;;;;22.13;15.47;;;;;;;2.38;100.00;151978.53;5066283;28;20483;-74
2021/12/06 07:23:29;;;;;;;21.90;15.37;;;;;;;2.38;100.00;151978.53;5042861;28;20452;-75
2021/12/06 07:26:05;;;;;;;20.63;15.60;;;;;;;2.37;100.00;151976.00;5071193;28;20488;-75
2021/12/06 07:28:41;;;;;;;23.40;15.33;;;;;;;2.39;100.00;151981.13;5074504;28;20535;-74
2021/12/06 07:31:17;;;;;;;22.60;15.47;;;;;;;2.39;100.00;151981.13;5048832;28;20482;-75
2021/12/06 07:33:53;;;;;;;23.10;15.10;;;;;;;2.44;100.00;151992.69;5069909;28;20436;-75
2021/12/06 07:36:30;;;;;;;22.07;14.90;;;;;;;2.37;100.00;151974.69;5085762;28;20461;-75
2021/12/06 07:39:06;;;;;;;18.53;14.50;;;;;;;2.38;100.00;151978.53;5087368;28;20440;-75
2021/12/06 07:41:42;;;;;;;21.10;14.60;;;;;;;2.34;100.00;151966.97;5046222;28;20932;-75
2021/12/06 07:44:18;;;;;;;22.23;15.00;;;;;;;2.40;100.00;151983.72;5063166;28;20453;-75
2021/12/06 07:46:54;;;;;;;20.20;13.70;;;;;;;2.37;100.00;151976.00;5055660;28;20820;-75
2021/12/06 07:49:30;;;;;;;20.00;14.00;;;;;;;2.35;100.00;151969.56;5062550;28;20732;-74
2021/12/06 07:52:07;;;;;;;21.93;14.17;;;;;;;2.35;100.00;151969.56;5071152;28;20448;-75
2021/12/06 07:54:43;;;;;;;24.27;15.73;;;;;;;2.36;100.00;151972.09;5057902;28;20452;-75
2021/12/06 07:57:19;;;;;;;21.60;14.53;;;;;;;2.37;100.00;151974.69;5053148;28;20451;-74
2021/12/06 07:59:55;;;;;;;24.70;15.10;;;;;;;2.40;100.00;151982.41;5053794;28;20968;-75
2021/12/06 08:02:30;;;;;;;24.13;16.10;;;;;;;2.41;100.00;151986.25;5069606;28;20451;-75
2021/12/06 08:07:58;;;;;;;21.67;14.07;;;;;;;2.49;100.00;152004.28;5071162;28;20456;-75
2021/12/06 08:10:36;;;;;;;21.30;14.40;;;;;;;2.45;100.00;151996.56;5050751;28;20447;-75
2021/12/06 08:13:13;;;;;;;22.87;15.13;;;;;;;2.44;100.00;151993.97;5082246;28;20440;-75
2021/12/06 08:15:50;;;;;;;21.20;15.43;;;;;;;2.47;100.00;152001.69;5066254;28;20431;-75
2021/12/06 08:18:26;;;;;;;20.20;14.80;;;;;;;2.52;100.00;152013.25;5053111;28;20465;-74
2021/12/06 08:21:02;;;;;;;21.47;15.50;;;;;;;2.54;100.00;152017.16;5057549;28;20513;-75
2021/12/06 08:23:39;;;;;;;20.97;14.53;;;;;;;2.57;100.00;152024.88;5086524;28;20445;-75
2021/12/06 08:26:14;;;;;;;22.40;14.03;;;;;;;2.58;100.00;152027.41;5048019;28;20739;-75
2021/12/06 08:28:51;;;;;;;18.87;12.93;;;;;;;2.62;100.00;152038.97;5091197;28;20452;-75
2021/12/06 08:31:29;;;;;;;17.50;12.10;;;;;;;2.64;100.00;152044.16;5056785;28;20480;-75
2021/12/06 08:34:05;;;;;;;17.83;12.00;;;;;;;2.67;100.00;152050.56;5056043;28;20447;-75
2021/12/06 08:36:41;;;;;;;20.20;13.20;;;;;;;2.69;100.00;152055.72;5050667;28;20460;-74
2021/12/06 08:39:18;;;;;;;20.30;12.93;;;;;;;2.70;100.00;152058.31;5069414;28;20436;-75
2021/12/06 08:41:53;;;;;;;17.20;12.10;;;;;;;2.72;100.00;152064.75;5082799;28;20497;-74
2021/12/06 08:44:29;;;;;;;19.27;12.63;;;;;;;2.74;100.00;152068.56;5066290;28;20543;-75
2021/12/06 08:47:05;;;;;;;22.27;13.03;;;;;;;2.77;100.00;152076.28;5087922;28;20441;-75
2021/12/06 08:49:40;;;;;;;18.23;13.03;;;;;;;2.79;100.00;152081.44;5038086;28;20522;-74
2021/12/06 08:52:16;;;;;;;15.57;12.30;;;;;;;2.82;100.00;152089.16;5067807;28;20445;-74
2021/12/06 08:54:53;;;;;;;15.67;11.93;;;;;;;2.83;100.00;152091.75;5050808;28;20647;-74
2021/12/06 08:57:29;;;;;;;19.50;12.70;;;;;;;2.86;100.00;152099.47;5036816;28;20473;-74
2021/12/06 09:00:06;;;;;;;21.50;12.73;;;;;;;2.86;100.00;152100.72;5096759;28;20443;-74
2021/12/06 09:02:42;;;;;;;17.70;12.47;;;;;;;2.87;100.00;152103.31;5050734;28;20433;-74
2021/12/06 09:05:17;;;;;;;20.90;11.60;;;;;;;2.89;100.00;152107.16;5054314;28;20460;-74
2021/12/06 09:07:53;;;;;;;17.83;12.33;;;;;;;2.89;100.00;152108.44;5066972;28;20456;-74
2021/12/06 09:10:30;;;;;;;18.13;12.63;;;;;;;2.92;100.00;152114.88;5045564;28;20453;-75
2021/12/06 09:13:07;;;;;;;16.83;12.40;;;;;;;2.96;100.00;152125.19;5096540;28;20539;-75
2021/12/06 09:15:43;;;;;;;20.10;13.17;;;;;;;3.01;100.00;152139.34;5069712;28;20778;-74
2021/12/06 09:18:18;;;;;;;14.60;11.50;;;;;;;3.02;100.00;152141.91;5059790;28;20469;-74
2021/12/06 09:20:54;;;;;;;17.50;11.73;;;;;;;3.06;100.00;152152.22;5098448;28;20794;-75
2021/12/06 09:23:30;;;;;;;16.97;11.43;;;;;;;3.05;100.00;152148.31;5064155;28;20462;-80
2021/12/06 09:26:07;;;;;;;17.03;11.07;;;;;;;3.04;100.00;152145.78;5053091;28;20493;-75
2021/12/06 09:28:42;;;;;;;14.70;10.27;;;;;;;3.04;100.00;152145.78;5056275;28;20480;-75
2021/12/06 09:31:19;;;;;;;14.43;10.10;;;;;;;3.10;100.00;152161.19;5065658;28;20500;-75
2021/12/06 09:33:56;;;;;;;14.47;9.70;;;;;;;3.16;100.00;152176.66;5070569;28;20445;-75
2021/12/06 09:36:33;;;;;;;12.87;8.93;;;;;;;3.20;100.00;152185.66;5040686;28;20462;-75
2021/12/06 09:39:09;;;;;;;14.03;10.17;;;;;;;3.26;100.00;152202.38;5039977;28;20472;-74
2021/12/06 09:41:47;;;;;;;14.60;9.30;;;;;;;3.28;100.00;152207.56;5097970;28;20442;-75
2021/12/06 09:44:22;;;;;;;12.20;8.13;;;;;;;3.25;100.00;152199.81;5052545;28;20449;-75
2021/12/06 09:46:58;;;;;;;11.80;8.43;;;;;;;3.23;100.00;152194.63;5051481;28;20536;-74
2021/12/06 09:49:33;;;;;;;13.70;10.03;;;;;;;3.20;100.00;152185.66;5084660;28;20806;-74
2021/12/06 09:52:10;;;;;;;12.60;8.30;;;;;;;3.24;100.00;152197.22;5049101;28;20476;-75
2021/12/06 09:54:46;;;;;;;15.10;9.73;;;;;;;3.28;100.00;152206.25;5067664;28;20441;-75
2021/12/06 09:57:23;;;;;;;13.23;9.40;;;;;;;3.37;100.00;152229.41;5035784;28;20452;-74
2021/12/06 09:59:59;;;;;;;14.60;10.23;;;;;;;3.42;100.00;152243.56;5083896;28;20449;-74
2021/12/06 10:02:35;;;;;;;12.60;9.20;;;;;;;3.40;100.00;152237.13;5035215;28;20461;-74
2021/12/06 10:05:11;;;;;;;13.50;9.20;;;;;;;3.39;100.00;152235.81;5062403;28;20448;-75
2021/12/06 10:07:47;;;;;;;14.83;9.00;;;;;;;3.43;100.00;152246.16;5062254;28;20582;-75
2021/12/06 10:10:22;;;;;;;14.83;10.20;;;;;;;3.43;100.00;152244.84;5048910;28;20445;-75
2021/12/06 10:13:00;;;;;;;14.93;11.07;;;;;;;3.42;100.00;152242.25;5082833;28;20839;-74
2021/12/06 10:15:36;;;;;;;14.20;11.10;;;;;;;3.44;100.00;152248.69;5051278;28;20529;-75
2021/12/06 10:18:16;;;;;;;15.17;10.60;;;;;;;3.43;100.00;152246.16;5060634;28;20468;-74
2021/12/06 10:20:52;;;;;;;16.10;10.60;;;;;;;3.45;100.00;152251.28;5044165;28;20969;-75
2021/12/06 10:23:28;;;;;;;16.53;10.43;;;;;;;3.38;100.00;152233.28;5062408;28;20802;-74
2021/12/06 10:26:05;;;;;;;17.13;11.43;;;;;;;3.48;100.00;152259.00;5066243;28;20939;-75
2021/12/06 10:28:44;;;;;;;12.97;9.90;;;;;;;3.51;100.00;152266.75;5035314;28;20452;-75
2021/12/06 10:31:19;;;;;;;12.30;9.23;;;;;;;3.58;100.00;152284.75;5075212;28;20468;-75
2021/12/06 10:33:55;;;;;;;14.10;9.10;;;;;;;3.60;100.00;152289.88;5054492;28;20822;-75
2021/12/06 10:36:30;;;;;;;18.13;9.93;;;;;;;3.58;100.00;152284.75;5077268;28;20520;-75
2021/12/06 10:39:09;;;;;;;14.90;10.03;;;;;;;3.58;100.00;152283.47;5040596;28;20665;-74
2021/12/06 10:41:48;;;;;;;13.57;8.97;;;;;;;3.63;100.00;152296.31;5061827;28;20767;-75
2021/12/06 10:44:26;;;;;;;12.00;8.67;;;;;;;3.62;100.00;152295.06;5086667;28;20442;-75
2021/12/06 10:47:01;;;;;;;12.57;7.67;;;;;;;3.67;100.00;152306.66;5081700;28;20438;-75
2021/12/06 10:49:37;;;;;;;10.93;8.13;;;;;;;3.72;100.00;152318.22;5096582;28;20547;-75
2021/12/06 10:52:12;;;;;;;8.97;6.50;;;;;;;3.72;100.00;152318.22;5072934;28;20417;-76
2021/12/06 10:54:52;;;;;;;11.67;7.40;;;;;;;3.74;100.00;152323.34;5088841;28;20440;-75
2021/12/06 10:57:52;;;;;;;11.23;7.37;;;;;;;3.74;100.00;152323.34;5057313;28;20434;-74
2021/12/06 11:00:43;;;;;;;12.40;7.87;;;;;;;3.76;100.00;152328.53;5056463;28;20446;-75
2021/12/06 11:03:25;;;;;;;11.10;7.20;;;;;;;3.80;100.00;152338.81;5088782;28;20445;-74
2021/12/06 11:06:04;;;;;;;8.57;6.60;;;;;;;3.83;100.00;152346.56;5039444;28;20450;-74
2021/12/06 11:08:41;;;;;;;8.67;6.70;;;;;;;3.83;100.00;152347.84;5058825;28;20438;-75
2021/12/06 11:11:19;;;;;;;8.80;6.70;;;;;;;3.82;100.00;152343.97;5055919;28;20859;-74
2021/12/06 11:13:57;;;;;;;10.83;6.80;;;;;;;3.84;100.00;152350.41;5057369;28;20445;-74
2021/12/06 11:16:35;;;;;;;8.07;6.57;;;;;;;3.84;100.00;152350.41;5073699;28;20441;-75
2021/12/06 11:19:11;;;;;;;9.10;6.23;;;;;;;3.86;100.00;152354.28;5055845;28;20478;-74
2021/12/06 11:21:49;;;;;;;9.50;7.00;;;;;;;3.90;100.00;152365.84;5086593;28;20821;-74
2021/12/06 11:24:27;;;;;;;8.60;6.20;;;;;;;3.86;100.00;152355.56;5046971;28;20473;-74
2021/12/06 11:27:05;;;;;;;8.50;6.40;;;;;;;3.84;100.00;152349.16;5040826;28;20457;-74
2021/12/06 11:29:42;;;;;;;12.20;8.00;;;;;;;3.78;100.00;152334.97;5081052;28;20441;-74
2021/12/06 11:32:21;;;;;;;9.63;7.03;;;;;;;3.81;100.00;152341.41;5110623;27;20959;-74
2021/12/06 11:34:59;;;;;;;9.90;6.90;;;;;;;3.84;100.00;152349.16;5066639;28;20450;-76
2021/12/06 11:37:37;;;;;;;12.10;7.17;;;;;;;3.85;100.00;152353.00;5075879;28;20435;-77
2021/12/06 11:40:17;;;;;;;10.67;8.13;;;;;;;3.88;100.00;152359.44;5085419;28;20879;-76
2021/12/06 11:42:56;;;;;;;11.00;7.33;;;;;;;3.89;100.00;152362.00;5053009;28;20533;-76
2021/12/06 11:45:33;;;;;;;10.57;6.97;;;;;;;3.86;100.00;152354.28;5051442;28;20796;-76
2021/12/06 11:48:13;;;;;;;8.77;6.47;;;;;;;3.87;100.00;152358.13;5051667;28;20431;-76
2021/12/06 11:50:51;;;;;;;10.90;7.30;;;;;;;3.86;100.00;152354.28;5062894;28;20445;-76
2021/12/06 11:53:29;;;;;;;11.83;7.00;;;;;;;3.92;100.00;152369.75;5090034;28;20456;-75
2021/12/06 11:56:08;;;;;;;8.63;6.53;;;;;;;3.94;100.00;152376.19;5084591;28;20528;-76
2021/12/06 11:58:46;;;;;;;7.80;6.30;;;;;;;3.96;100.00;152381.31;5095251;28;20551;-75
2021/12/06 12:01:25;;;;;;;7.63;5.90;;;;;;;3.94;98.39;152376.19;5063518;28;20434;-76
2021/12/06 12:04:04;;;;;;;15.10;10.97;;;;;;;3.94;97.99;152374.88;5083455;28;20937;-75
2021/12/06 12:06:40;;;;;;;10.90;6.97;;;;;;;3.99;97.83;152387.75;5043875;28;20511;-76